Time,TemperatureF,DewpointF,PressureIn,WindDirection,WindDirectionDegrees,WindSpeedMPH,WindSpeedGustMPH,Humidity,HourlyPrecipIn,Conditions,Clouds,dailyrainin,SoftwareType,DateUTC
2013-02-06 00:03:00,42.4,40.0,29.98,SSE,155,0.0,0.0,92,0.00,,,0.00,weatherlink.com 1.10,2013-02-06 05:03:00,
2013-02-06 00:18:00,40.7,39.0,29.98,SSE,155,0.0,1.0,93,0.00,,,0.00,weatherlink.com 1.10,2013-02-06 05:18:00,
2013-02-06 00:33:00,40.5,40.0,29.99,SSE,155,0.0,1.0,96,0.00,,,0.00,weatherlink.com 1.10,2013-02-06 05:33:00,
2013-02-06 00:48:00,40.0,39.0,29.99,SSE,155,0.0,0.0,96,0.00,,,0.00,weatherlink.com 1.10,2013-02-06 05:48:00,
2013-02-06 01:03:00,39.2,39.0,29.99,SSE,155,0.0,1.0,97,0.00,,,0.00,weatherlink.com 1.10,2013-02-06 06:03:00,
2013-02-06 01:19:00,38.7,38.0,29.99,SSE,155,0.0,2.0,98,0.00,,,0.00,weatherlink.com 1.10,2013-02-06 06:19:00,
2013-02-06 01:34:00,38.4,38.0,29.99,SSE,155,0.0,0.0,98,0.00,,,0.00,weatherlink.com 1.10,2013-02-06 06:34:00,
2013-02-06 01:49:00,37.3,37.0,30.00,SSE,155,0.0,1.0,97,0.00,,,0.00,weatherlink.com 1.10,2013-02-06 06:49:00,
2013-02-06 02:04:00,36.8,36.0,29.99,SSE,155,0.0,0.0,98,0.00,,,0.00,weatherlink.com 1.10,2013-02-06 07:04:00,
2013-02-06 02:19:00,36.4,36.0,29.99,SSE,155,0.0,1.0,99,0.00,,,0.00,weatherlink.com 1.10,2013-02-06 07:19:00,
2013-02-06 02:34:00,36.0,36.0,29.99,SSE,155,0.0,1.0,99,0.00,,,0.00,weatherlink.com 1.10,2013-02-06 07:34:00,
2013-02-06 02:49:00,35.9,36.0,29.99,SSE,155,0.0,1.0,99,0.00,,,0.00,weatherlink.com 1.10,2013-02-06 07:49:00,
2013-02-06 03:04:00,36.4,36.0,29.99,SSE,155,0.0,0.0,100,0.00,,,0.00,weatherlink.com 1.10,2013-02-06 08:04:00,
2013-02-06 03:19:00,37.6,38.0,29.99,SSE,155,0.0,0.0,100,0.00,,,0.00,weatherlink.com 1.10,2013-02-06 08:19:00,
2013-02-06 03:34:00,37.7,38.0,30.00,SSE,155,0.0,0.0,100,0.00,,,0.00,weatherlink.com 1.10,2013-02-06 08:34:00,
2013-02-06 03:49:00,37.5,38.0,30.00,SSE,155,0.0,0.0,100,0.00,,,0.00,weatherlink.com 1.10,2013-02-06 08:49:00,
2013-02-06 04:04:00,36.3,36.0,30.01,SSE,155,0.0,1.0,99,0.00,,,0.00,weatherlink.com 1.10,2013-02-06 09:04:00,
2013-02-06 04:19:00,38.0,38.0,30.01,SSE,155,0.0,2.0,98,0.00,,,0.00,weatherlink.com 1.10,2013-02-06 09:19:00,
2013-02-06 04:34:00,38.5,37.0,30.02,SSE,155,0.0,1.0,93,0.00,,,0.00,weatherlink.com 1.10,2013-02-06 09:34:00,
2013-02-06 04:49:00,39.0,36.0,30.02,South,191,0.0,1.0,90,0.00,,,0.00,weatherlink.com 1.10,2013-02-06 09:49:00,
2013-02-06 05:04:00,36.8,35.0,30.03,South,191,0.0,1.0,93,0.00,,,0.00,weatherlink.com 1.10,2013-02-06 10:04:00,
2013-02-06 05:19:00,36.7,35.0,30.03,South,191,0.0,0.0,93,0.00,,,0.00,weatherlink.com 1.10,2013-02-06 10:19:00,
2013-02-06 05:34:00,34.8,33.0,30.04,South,191,0.0,1.0,94,0.00,,,0.00,weatherlink.com 1.10,2013-02-06 10:34:00,
2013-02-06 05:49:00,34.3,34.0,30.05,South,191,0.0,1.0,97,0.00,,,0.00,weatherlink.com 1.10,2013-02-06 10:49:00,
2013-02-06 06:04:00,36.1,35.0,30.05,WNW,289,0.0,1.0,96,0.00,,,0.00,weatherlink.com 1.10,2013-02-06 11:04:00,
2013-02-06 06:19:00,38.5,36.0,30.07,WNW,289,0.0,1.0,89,0.00,,,0.00,weatherlink.com 1.10,2013-02-06 11:19:00,
2013-02-06 06:34:00,38.7,35.0,30.07,WNW,289,0.0,1.0,87,0.00,,,0.00,weatherlink.com 1.10,2013-02-06 11:34:00,
2013-02-06 06:49:00,38.5,35.0,30.08,WNW,289,2.0,4.0,86,0.00,,,0.00,weatherlink.com 1.10,2013-02-06 11:49:00,
2013-02-06 07:04:00,36.2,33.0,30.09,WNW,289,0.0,2.0,89,0.00,,,0.00,weatherlink.com 1.10,2013-02-06 12:04:00,
2013-02-06 07:19:00,34.5,32.0,30.11,WNW,289,0.0,2.0,90,0.00,,,0.00,weatherlink.com 1.10,2013-02-06 12:19:00,
2013-02-06 07:34:00,33.0,32.0,30.11,WNW,289,0.0,1.0,94,0.00,,,0.00,weatherlink.com 1.10,2013-02-06 12:34:00,
2013-02-06 07:49:00,34.3,33.0,30.12,WNW,289,0.0,2.0,95,0.00,,,0.00,weatherlink.com 1.10,2013-02-06 12:49:00,
2013-02-06 08:04:00,35.3,33.0,30.12,WNW,289,0.0,1.0,92,0.00,,,0.00,weatherlink.com 1.10,2013-02-06 13:04:00,
2013-02-06 08:19:00,35.2,34.0,30.13,WNW,292,0.0,0.0,94,0.00,,,0.00,weatherlink.com 1.10,2013-02-06 13:19:00,
2013-02-06 08:34:00,36.7,35.0,30.14,WNW,292,0.0,0.0,94,0.00,,,0.00,weatherlink.com 1.10,2013-02-06 13:34:00,
2013-02-06 08:50:00,38.9,37.0,30.14,WNW,292,0.0,1.0,92,0.00,,,0.00,weatherlink.com 1.10,2013-02-06 13:50:00,
2013-02-06 09:05:00,41.5,39.0,30.15,WNW,292,0.0,0.0,90,0.00,,,0.00,weatherlink.com 1.10,2013-02-06 14:05:00,
2013-02-06 09:20:00,44.4,37.0,30.15,WNW,292,0.0,4.0,76,0.00,,,0.00,weatherlink.com 1.10,2013-02-06 14:20:00,
2013-02-06 09:35:00,46.3,37.0,30.15,WNW,291,0.0,3.0,70,0.00,,,0.00,weatherlink.com 1.10,2013-02-06 14:35:00,
2013-02-06 09:50:00,48.0,38.0,30.16,WNW,291,2.0,3.0,68,0.00,,,0.00,weatherlink.com 1.10,2013-02-06 14:50:00,
2013-02-06 10:20:00,51.1,35.0,30.16,WSW,237,5.0,5.0,54,0.00,,,0.00,weatherlink.com 1.10,2013-02-06 15:20:00,
2013-02-06 10:35:00,52.0,35.0,30.16,SSW,205,1.0,5.0,52,0.00,,,0.00,weatherlink.com 1.10,2013-02-06 15:35:00,
2013-02-06 10:50:00,53.0,35.0,30.16,West,270,1.0,5.0,50,0.00,,,0.00,weatherlink.com 1.10,2013-02-06 15:50:00,
2013-02-06 11:05:00,54.0,34.0,30.16,WNW,282,2.0,4.0,48,0.00,,,0.00,weatherlink.com 1.10,2013-02-06 16:05:00,
2013-02-06 11:20:00,54.9,34.0,30.17,WNW,293,0.0,6.0,46,0.00,,,0.00,weatherlink.com 1.10,2013-02-06 16:20:00,
2013-02-06 11:35:00,54.9,36.0,30.17,SSW,206,1.0,7.0,49,0.00,,,0.00,weatherlink.com 1.10,2013-02-06 16:35:00,
2013-02-06 11:50:00,55.8,36.0,30.17,South,190,2.0,7.0,47,0.00,,,0.00,weatherlink.com 1.10,2013-02-06 16:50:00,
2013-02-06 12:05:00,56.6,36.0,30.16,ESE,116,0.0,4.0,46,0.00,,,0.00,weatherlink.com 1.10,2013-02-06 17:05:00,
2013-02-06 12:20:00,57.3,35.0,30.16,ESE,122,1.0,8.0,44,0.00,,,0.00,weatherlink.com 1.10,2013-02-06 17:20:00,
2013-02-06 12:35:00,57.8,35.0,30.15,SSW,193,1.0,4.0,42,0.00,,,0.00,weatherlink.com 1.10,2013-02-06 17:35:00,
2013-02-06 12:50:00,57.7,35.0,30.14,WSW,246,6.0,7.0,42,0.00,,,0.00,weatherlink.com 1.10,2013-02-06 17:50:00,
2013-02-06 13:10:00,57.6,34.0,30.13,WSW,253,2.0,7.0,41,0.00,,,0.00,weatherlink.com 1.10,2013-02-06 18:10:00,
2013-02-06 13:38:00,59.8,33.0,30.12,SW,235,1.0,6.0,36,0.00,,,0.00,weatherlink.com 1.10,2013-02-06 18:38:00,
2013-02-06 13:51:00,60.2,32.0,30.12,NW,308,3.0,6.0,35,0.00,,,0.00,weatherlink.com 1.10,2013-02-06 18:51:00,
2013-02-06 14:06:00,59.6,31.0,30.12,SW,222,1.0,9.0,34,0.00,,,0.00,weatherlink.com 1.10,2013-02-06 19:06:00,
2013-02-06 14:21:00,61.1,32.0,30.11,West,270,6.0,7.0,33,0.00,,,0.00,weatherlink.com 1.10,2013-02-06 19:21:00,
2013-02-06 14:36:00,60.4,30.0,30.11,NNW,328,0.0,8.0,32,0.00,,,0.00,weatherlink.com 1.10,2013-02-06 19:36:00,
2013-02-06 14:51:00,61.4,28.0,30.11,SSW,208,0.0,8.0,28,0.00,,,0.00,weatherlink.com 1.10,2013-02-06 19:51:00,
2013-02-06 15:06:00,61.8,28.0,30.11,West,281,3.0,6.0,28,0.00,,,0.00,weatherlink.com 1.10,2013-02-06 20:06:00,
2013-02-06 15:21:00,61.6,28.0,30.11,South,187,7.0,7.0,28,0.00,,,0.00,weatherlink.com 1.10,2013-02-06 20:21:00,
2013-02-06 15:36:00,62.6,27.0,30.11,WSW,244,2.0,6.0,26,0.00,,,0.00,weatherlink.com 1.10,2013-02-06 20:36:00,
2013-02-06 15:51:00,61.9,26.0,30.11,WNW,283,0.0,7.0,26,0.00,,,0.00,weatherlink.com 1.10,2013-02-06 20:51:00,
2013-02-06 16:06:00,61.5,26.0,30.11,SW,214,4.0,7.0,26,0.00,,,0.00,weatherlink.com 1.10,2013-02-06 21:06:00,
2013-02-06 16:21:00,61.9,26.0,30.11,SW,232,2.0,5.0,25,0.00,,,0.00,weatherlink.com 1.10,2013-02-06 21:21:00,
2013-02-06 16:36:00,61.4,24.0,30.11,SW,227,5.0,6.0,24,0.00,,,0.00,weatherlink.com 1.10,2013-02-06 21:36:00,
2013-02-06 16:51:00,61.1,24.0,30.11,West,275,0.0,2.0,24,0.00,,,0.00,weatherlink.com 1.10,2013-02-06 21:51:00,
2013-02-06 17:06:00,61.0,24.0,30.12,West,275,0.0,2.0,24,0.00,,,0.00,weatherlink.com 1.10,2013-02-06 22:06:00,
2013-02-06 17:21:00,60.6,23.0,30.12,West,275,0.0,1.0,24,0.00,,,0.00,weatherlink.com 1.10,2013-02-06 22:21:00,
2013-02-06 17:51:00,59.1,25.0,30.13,West,275,0.0,1.0,27,0.00,,,0.00,weatherlink.com 1.10,2013-02-06 22:51:00,
2013-02-06 18:06:00,57.6,25.0,30.13,West,275,0.0,0.0,28,0.00,,,0.00,weatherlink.com 1.10,2013-02-06 23:06:00,
2013-02-06 18:21:00,56.3,25.0,30.13,West,275,0.0,0.0,30,0.00,,,0.00,weatherlink.com 1.10,2013-02-06 23:21:00,
2013-02-06 18:36:00,54.9,25.0,30.14,West,275,0.0,1.0,32,0.00,,,0.00,weatherlink.com 1.10,2013-02-06 23:36:00,
2013-02-06 18:51:00,54.4,26.0,30.13,West,275,0.0,1.0,34,0.00,,,0.00,weatherlink.com 1.10,2013-02-06 23:51:00,
2013-02-06 19:06:00,53.1,27.0,30.14,West,275,0.0,1.0,37,0.00,,,0.00,weatherlink.com 1.10,2013-02-07 00:06:00,
2013-02-06 19:21:00,52.7,27.0,30.16,West,275,0.0,1.0,37,0.00,,,0.00,weatherlink.com 1.10,2013-02-07 00:21:00,
2013-02-06 19:36:00,52.0,27.0,30.16,West,275,0.0,0.0,38,0.00,,,0.00,weatherlink.com 1.10,2013-02-07 00:36:00,
2013-02-06 19:51:00,51.1,27.0,30.16,West,275,0.0,1.0,40,0.00,,,0.00,weatherlink.com 1.10,2013-02-07 00:51:00,
2013-02-06 20:06:00,50.0,28.0,30.15,West,275,0.0,2.0,42,0.00,,,0.00,weatherlink.com 1.10,2013-02-07 01:06:00,
2013-02-06 20:21:00,50.3,28.0,30.15,WNW,297,0.0,3.0,43,0.00,,,0.00,weatherlink.com 1.10,2013-02-07 01:21:00,
2013-02-06 20:36:00,49.5,29.0,30.15,WNW,297,0.0,2.0,46,0.00,,,0.00,weatherlink.com 1.10,2013-02-07 01:36:00,
2013-02-06 20:51:00,48.9,29.0,30.15,WNW,297,0.0,2.0,46,0.00,,,0.00,weatherlink.com 1.10,2013-02-07 01:51:00,
2013-02-06 21:06:00,48.8,29.0,30.15,WNW,297,0.0,1.0,46,0.00,,,0.00,weatherlink.com 1.10,2013-02-07 02:06:00,
2013-02-06 21:21:00,48.8,29.0,30.16,WNW,297,0.0,1.0,46,0.00,,,0.00,weatherlink.com 1.10,2013-02-07 02:21:00,
2013-02-06 21:36:00,48.6,28.0,30.17,WNW,297,0.0,1.0,46,0.00,,,0.00,weatherlink.com 1.10,2013-02-07 02:36:00,
2013-02-06 21:51:00,48.4,28.0,30.18,WNW,297,0.0,0.0,46,0.00,,,0.00,weatherlink.com 1.10,2013-02-07 02:51:00,
2013-02-06 22:06:00,47.9,28.0,30.21,WNW,297,0.0,0.0,46,0.00,,,0.00,weatherlink.com 1.10,2013-02-07 03:06:00,
2013-02-06 22:21:00,47.6,28.0,30.20,WNW,297,0.0,1.0,46,0.00,,,0.00,weatherlink.com 1.10,2013-02-07 03:21:00,
2013-02-06 22:36:00,47.0,28.0,30.20,WNW,297,0.0,1.0,47,0.00,,,0.00,weatherlink.com 1.10,2013-02-07 03:36:00,
2013-02-06 22:51:00,45.2,28.0,30.20,WNW,297,0.0,2.0,52,0.00,,,0.00,weatherlink.com 1.10,2013-02-07 03:51:00,
2013-02-06 23:06:00,44.3,29.0,30.20,WNW,297,0.0,2.0,55,0.00,,,0.00,weatherlink.com 1.10,2013-02-07 04:06:00,
2013-02-06 23:21:00,43.9,28.0,30.19,WNW,297,0.0,2.0,54,0.00,,,0.00,weatherlink.com 1.10,2013-02-07 04:21:00,
2013-02-06 23:36:00,44.0,28.0,30.20,WNW,297,0.0,1.0,54,0.00,,,0.00,weatherlink.com 1.10,2013-02-07 04:36:00,
2013-02-06 23:51:00,44.4,28.0,30.20,WNW,297,2.0,3.0,52,0.00,,,0.00,weatherlink.com 1.10,2013-02-07 04:51:00,